createdAt,value
2022-11-03T00:01:39.001Z,21.33
2022-11-03T00:04:09.053Z,26.50
2022-11-03T00:06:37.942Z,24.95
2022-11-03T00:09:10.045Z,34.70
2022-11-03T00:11:40.556Z,23.45
2022-11-03T00:14:10.395Z,28.70
2022-11-03T00:16:41.041Z,33.60
2022-11-03T00:19:11.559Z,21.83
2022-11-03T00:21:39.907Z,31.73
2022-11-03T00:24:09.478Z,34.13
2022-11-03T00:26:38.229Z,23.65
2022-11-03T00:29:10.263Z,26.42
2022-11-03T00:31:42.214Z,32.42
2022-11-03T00:34:11.111Z,34.33
2022-11-03T00:36:42.024Z,26.48
2022-11-03T00:39:10.543Z,32.22
2022-11-03T00:41:39.837Z,22.58
2022-11-03T00:44:10.319Z,23.88
2022-11-03T00:46:40.188Z,29.83
2022-11-03T00:49:08.280Z,30.63
2022-11-03T00:51:36.867Z,22.05
2022-11-03T00:54:07.388Z,18.27
2022-11-03T00:56:38.286Z,29.48
2022-11-03T00:59:08.483Z,29.65
2022-11-03T01:01:45.726Z,26.45
2022-11-03T01:04:34.103Z,24.38
2022-11-03T01:07:03.073Z,22.17
2022-11-03T01:09:36.111Z,20.30
2022-11-03T01:12:08.083Z,27.42
2022-11-03T01:14:39.359Z,16.60
2022-11-03T01:17:11.058Z,29.02
2022-11-03T01:19:39.168Z,32.05
2022-11-03T01:22:11.179Z,22.75
2022-11-03T01:24:40.431Z,19.55
2022-11-03T01:27:09.212Z,20.40
2022-11-03T01:29:37.464Z,21.20
2022-11-03T01:32:06.398Z,21.50
2022-11-03T01:34:37.088Z,42.38
2022-11-03T01:37:07.139Z,28.90
2022-11-03T01:39:35.677Z,22.58
2022-11-03T01:42:05.595Z,28.23
2022-11-03T01:44:37.498Z,20.88
2022-11-03T01:47:20.516Z,25.95
2022-11-03T01:49:55.436Z,24.40
2022-11-03T01:52:31.666Z,29.08
2022-11-03T01:55:06.025Z,25.33
2022-11-03T01:57:40.909Z,20.75
2022-11-03T02:00:10.971Z,20.98
2022-11-03T02:02:39.170Z,24.80
2022-11-03T02:05:11.960Z,20.83
2022-11-03T02:07:48.387Z,23.17
2022-11-03T02:10:16.700Z,28.73
2022-11-03T02:12:45.316Z,25.85
2022-11-03T02:15:16.980Z,20.70
2022-11-03T02:17:48.495Z,26.33
2022-11-03T02:20:22.072Z,24.77
2022-11-03T02:23:18.400Z,31.65
2022-11-03T02:25:51.228Z,31.15
2022-11-03T02:28:23.335Z,24.45
2022-11-03T02:31:03.683Z,23.33
2022-11-03T02:33:43.381Z,23.77
2022-11-03T02:36:20.982Z,41.42
2022-11-03T02:38:58.394Z,32.03
2022-11-03T02:41:31.299Z,25.58
2022-11-03T02:44:01.714Z,25.30
2022-11-03T02:46:33.855Z,18.80
2022-11-03T02:49:02.037Z,28.10
2022-11-03T02:51:30.067Z,29.35
2022-11-03T02:54:07.791Z,34.45
2022-11-03T02:56:44.255Z,23.85
2022-11-03T02:59:18.999Z,30.48
2022-11-03T03:01:55.496Z,25.02
2022-11-03T03:04:30.363Z,26.23
2022-11-03T03:07:03.285Z,31.17
2022-11-03T03:09:41.984Z,33.78
2022-11-03T03:12:13.254Z,25.48
2022-11-03T03:14:46.091Z,23.27
2022-11-03T03:17:24.196Z,27.13
2022-11-03T03:20:04.667Z,26.58
2022-11-03T03:22:41.185Z,20.25
2022-11-03T03:25:17.549Z,20.95
2022-11-03T03:27:52.793Z,33.45
2022-11-03T03:30:21.818Z,25.33
2022-11-03T03:32:53.418Z,31.77
2022-11-03T03:35:27.907Z,27.05
2022-11-03T03:38:03.590Z,29.02
2022-11-03T03:40:37.556Z,33.15
2022-11-03T03:43:12.672Z,22.42
2022-11-03T03:45:42.637Z,25.10
2022-11-03T03:48:10.869Z,31.73
2022-11-03T03:50:43.551Z,25.60
2022-11-03T03:53:14.040Z,22.98
2022-11-03T03:55:45.613Z,37.67
2022-11-03T03:58:16.984Z,23.67
2022-11-03T04:00:45.760Z,32.25
2022-11-03T04:03:18.654Z,30.17
2022-11-03T04:05:47.847Z,25.73
2022-11-03T04:08:17.799Z,27.80
2022-11-03T04:11:07.493Z,30.17
2022-11-03T04:13:54.192Z,31.20
2022-11-03T04:16:39.949Z,25.42
2022-11-03T04:19:28.258Z,29.45
2022-11-03T04:22:14.131Z,37.42
2022-11-03T04:24:42.193Z,29.58
2022-11-03T04:27:28.607Z,45.65
2022-11-03T04:30:03.602Z,37.90
2022-11-03T04:32:31.989Z,41.25
2022-11-03T04:35:01.358Z,40.88
2022-11-03T04:37:29.824Z,49.42
2022-11-03T04:40:01.499Z,44.17
2022-11-03T04:42:34.502Z,42.97
2022-11-03T04:45:15.665Z,43.30
2022-11-03T04:47:43.686Z,37.90
2022-11-03T04:50:20.481Z,35.90
2022-11-03T04:52:48.759Z,36.65
2022-11-03T04:55:19.778Z,32.80
2022-11-03T04:57:48.887Z,39.58
2022-11-03T05:00:20.623Z,45.03
2022-11-03T05:02:55.904Z,37.13
2022-11-03T05:05:27.296Z,49.10
2022-11-03T05:07:59.379Z,47.97
2022-11-03T05:10:30.725Z,37.55
2022-11-03T05:13:01.581Z,46.55
2022-11-03T05:15:38.011Z,37.10
2022-11-03T05:18:19.693Z,38.92
2022-11-03T05:20:52.867Z,36.92
2022-11-03T05:23:23.722Z,42.65
2022-11-03T05:25:55.014Z,40.95
2022-11-03T05:28:27.636Z,53.17
2022-11-03T05:30:57.901Z,41.15
2022-11-03T05:33:33.157Z,45.58
2022-11-03T05:36:09.493Z,57.35
2022-11-03T05:38:37.533Z,48.15
2022-11-03T05:41:15.981Z,54.08
2022-11-03T05:43:44.105Z,57.72
2022-11-03T05:46:15.891Z,47.78
2022-11-03T05:48:45.042Z,41.05
2022-11-03T05:51:22.515Z,53.58
2022-11-03T05:53:56.734Z,55.60
2022-11-03T05:56:26.652Z,60.22
2022-11-03T05:58:57.321Z,56.78
2022-11-03T06:01:33.614Z,44.28
2022-11-03T06:04:13.624Z,55.20
2022-11-03T06:06:42.339Z,40.65
2022-11-03T06:09:17.496Z,53.05
2022-11-03T06:11:47.118Z,41.05
2022-11-03T06:14:23.991Z,42.22
2022-11-03T06:16:58.818Z,40.70
2022-11-03T06:19:31.303Z,42.33
2022-11-03T06:22:06.980Z,57.42
2022-11-03T06:24:35.909Z,38.22
2022-11-03T06:27:04.682Z,34.95
2022-11-03T06:29:34.769Z,52.65
2022-11-03T06:32:04.452Z,44.08
2022-11-03T06:34:42.933Z,46.92
2022-11-03T06:37:24.859Z,39.55
2022-11-03T06:40:01.072Z,36.20
2022-11-03T06:42:34.137Z,45.13
2022-11-03T06:45:13.907Z,54.97
2022-11-03T06:47:43.325Z,48.72
2022-11-03T06:50:25.592Z,48.47
2022-11-03T06:52:55.614Z,45.47
2022-11-03T06:55:27.786Z,40.17
2022-11-03T06:58:01.309Z,42.28
2022-11-03T07:00:34.848Z,53.67
2022-11-03T07:03:11.799Z,51.15
2022-11-03T07:05:41.240Z,48.17
2022-11-03T07:08:23.235Z,57.63
2022-11-03T07:10:58.209Z,36.80
2022-11-03T07:13:28.614Z,36.38
2022-11-03T07:15:56.813Z,39.30
2022-11-03T07:18:32.225Z,39.40
2022-11-03T07:21:16.333Z,39.85
2022-11-03T07:23:46.331Z,40.35
2022-11-03T07:26:15.424Z,38.65
2022-11-03T07:28:43.505Z,38.22
2022-11-03T07:31:19.936Z,49.92
2022-11-03T07:33:49.711Z,31.40
2022-11-03T07:36:23.578Z,35.50
2022-11-03T07:38:56.309Z,40.13
2022-11-03T07:41:34.002Z,30.85
2022-11-03T07:44:04.222Z,36.03
2022-11-03T07:46:32.314Z,30.40
2022-11-03T07:49:04.414Z,30.17
2022-11-03T07:51:34.754Z,40.30
2022-11-03T07:54:14.997Z,26.88
2022-11-03T07:56:49.828Z,36.72
2022-11-03T08:01:58.934Z,35.95
2022-11-03T08:04:32.799Z,33.17
2022-11-03T08:07:00.941Z,28.98
2022-11-03T08:09:29.024Z,27.55
2022-11-03T08:11:57.221Z,31.60
2022-11-03T08:14:25.402Z,25.08
2022-11-03T08:16:53.486Z,28.63
2022-11-03T08:19:21.582Z,24.27
2022-11-03T08:21:50.962Z,21.77
2022-11-03T08:24:18.981Z,21.48
2022-11-03T08:26:47.252Z,22.52
2022-11-03T08:29:17.515Z,19.33
2022-11-03T08:31:45.729Z,15.48
2022-11-03T08:34:13.900Z,21.73
2022-11-03T08:36:41.944Z,12.60
2022-11-03T08:39:11.443Z,11.77
2022-11-03T08:41:39.709Z,15.43
2022-11-03T08:44:07.775Z,12.00
2022-11-03T08:46:36.297Z,11.48
2022-11-03T08:49:04.533Z,5.15
2022-11-03T08:51:32.637Z,6.65
2022-11-03T08:54:01.782Z,6.43
2022-11-03T08:56:31.234Z,6.53
2022-11-03T08:58:59.291Z,4.00
2022-11-03T09:01:27.518Z,12.25
2022-11-03T09:03:55.837Z,6.68
2022-11-03T09:06:24.393Z,5.00
2022-11-03T09:11:41.868Z,3.40
2022-11-03T09:14:10.254Z,6.78
2022-11-03T09:16:38.397Z,9.95
2022-11-03T09:19:06.486Z,3.85
2022-11-03T09:21:34.587Z,12.07
2022-11-03T09:24:02.597Z,4.22
2022-11-03T09:26:30.856Z,2.15
2022-11-03T09:29:01.386Z,7.47
2022-11-03T09:31:29.944Z,8.27
2022-11-03T09:33:58.021Z,6.85
2022-11-03T09:36:26.142Z,3.92
2022-11-03T09:38:54.406Z,6.03
2022-11-03T09:41:44.297Z,3.83
2022-11-03T09:44:13.116Z,2.78
2022-11-03T09:46:41.320Z,6.38
2022-11-03T09:49:09.538Z,6.75
2022-11-03T09:51:37.741Z,3.15
2022-11-03T09:54:07.136Z,5.53
2022-11-03T09:56:38.156Z,7.78
2022-11-03T09:59:17.650Z,6.10
2022-11-03T10:01:49.841Z,4.35
2022-11-03T10:04:22.881Z,2.95
2022-11-03T10:06:51.160Z,4.78
2022-11-03T10:09:20.795Z,4.30
2022-11-03T10:11:49.579Z,7.78
2022-11-03T10:14:21.307Z,10.23
2022-11-03T10:16:57.486Z,5.07
2022-11-03T10:19:26.422Z,6.50
2022-11-03T10:21:54.844Z,7.78
2022-11-03T10:24:23.432Z,4.07
2022-11-03T10:26:54.649Z,4.88
2022-11-03T10:29:26.489Z,4.53
2022-11-03T10:31:58.681Z,6.45
2022-11-03T10:34:37.746Z,6.05
2022-11-03T10:37:21.009Z,4.93
2022-11-03T10:39:51.163Z,8.20
2022-11-03T10:42:23.417Z,3.83
2022-11-03T10:44:56.728Z,9.48
2022-11-03T10:47:35.487Z,4.45
2022-11-03T10:50:24.042Z,5.90
2022-11-03T10:52:53.366Z,5.07
2022-11-03T10:55:25.666Z,2.90
2022-11-03T10:57:56.616Z,4.50
2022-11-03T11:00:26.700Z,7.75
2022-11-03T11:03:01.290Z,7.50
2022-11-03T11:05:32.460Z,5.28
2022-11-03T11:08:02.561Z,2.95
2022-11-03T11:10:34.235Z,5.20
2022-11-03T11:13:25.839Z,7.07
2022-11-03T11:15:59.521Z,6.18
2022-11-03T11:19:11.850Z,4.22
2022-11-03T11:22:13.934Z,5.43
2022-11-03T11:25:03.418Z,6.55
2022-11-03T11:27:58.650Z,5.45
2022-11-03T11:31:25.371Z,8.32
2022-11-03T11:34:48.206Z,5.40
2022-11-03T11:37:38.347Z,14.73
2022-11-03T11:40:15.384Z,8.98
2022-11-03T11:43:26.820Z,2.20
2022-11-03T11:46:40.081Z,4.65
2022-11-03T11:49:19.222Z,7.53
2022-11-03T11:51:49.358Z,5.80
2022-11-03T11:54:22.657Z,5.68
2022-11-03T11:56:51.959Z,7.25
2022-11-03T11:59:25.788Z,3.42
2022-11-03T12:01:58.034Z,7.32
2022-11-03T12:04:31.992Z,2.85
2022-11-03T12:07:01.724Z,3.03
2022-11-03T12:09:31.316Z,2.70
2022-11-03T12:12:08.359Z,4.22
2022-11-03T12:14:39.204Z,5.30
2022-11-03T12:17:38.028Z,1.85
2022-11-03T12:20:39.848Z,4.95
2022-11-03T12:23:09.640Z,3.00
2022-11-03T12:25:40.340Z,7.55
2022-11-03T12:28:09.332Z,3.10
2022-11-03T12:30:40.338Z,9.02
2022-11-03T12:33:10.717Z,1.98
2022-11-03T12:35:40.538Z,3.85
2022-11-03T12:38:10.283Z,2.67
2022-11-03T12:40:38.498Z,5.00
2022-11-03T12:43:07.064Z,2.15
2022-11-03T12:45:35.758Z,3.83
2022-11-03T12:48:05.359Z,2.85
2022-11-03T12:50:33.647Z,4.30
2022-11-03T12:53:02.132Z,3.08
2022-11-03T12:55:31.898Z,2.42
2022-11-03T12:58:00.264Z,7.22
2022-11-03T13:00:32.257Z,4.55
2022-11-03T13:03:03.852Z,8.43
2022-11-03T13:05:32.025Z,5.32
2022-11-03T13:08:00.263Z,2.10
2022-11-03T13:10:28.389Z,5.50
2022-11-03T13:12:57.759Z,6.95
2022-11-03T13:15:25.807Z,4.45
2022-11-03T13:20:43.097Z,5.68
2022-11-03T13:23:11.823Z,2.90
2022-11-03T13:25:40.034Z,4.10
2022-11-03T13:28:09.555Z,11.63
2022-11-03T13:30:37.662Z,3.95
2022-11-03T13:33:05.957Z,3.60
2022-11-03T13:35:34.306Z,5.38
2022-11-03T13:38:02.386Z,9.98
2022-11-03T13:43:19.876Z,6.70
2022-11-03T13:45:48.109Z,3.90
2022-11-03T13:51:07.358Z,8.10
2022-11-03T13:56:23.961Z,7.50
2022-11-03T14:01:42.006Z,5.90
2022-11-03T14:06:58.593Z,5.50
2022-11-03T14:09:26.970Z,3.53
2022-11-03T14:12:12.834Z,6.93
2022-11-03T14:14:42.586Z,11.63
2022-11-03T14:17:10.862Z,12.32
2022-11-03T14:19:44.824Z,9.60
2022-11-03T14:22:15.508Z,7.50
2022-11-03T14:24:44.024Z,13.27
2022-11-03T14:27:12.777Z,3.78
2022-11-03T14:29:43.427Z,6.88
2022-11-03T14:32:11.547Z,8.52
2022-11-03T14:34:39.896Z,6.47
2022-11-03T14:37:09.077Z,4.32
2022-11-03T14:39:37.786Z,5.78
2022-11-03T14:42:05.796Z,7.38
2022-11-03T14:44:35.828Z,5.45
2022-11-03T14:47:07.919Z,6.35
2022-11-03T14:49:37.532Z,7.45
2022-11-03T14:52:08.159Z,5.07
2022-11-03T14:54:37.324Z,9.30
2022-11-03T14:57:06.124Z,6.65
2022-11-03T14:59:35.237Z,12.50
2022-11-03T15:02:05.827Z,7.28
2022-11-03T15:04:34.672Z,5.47
2022-11-03T15:07:02.795Z,4.30
2022-11-03T15:09:30.876Z,9.77
2022-11-03T15:11:59.032Z,6.80
2022-11-03T15:14:27.071Z,6.72
2022-11-03T15:16:55.120Z,5.97
2022-11-03T15:19:24.496Z,8.35
2022-11-03T15:21:52.512Z,3.90
2022-11-03T15:27:08.537Z,2.70
2022-11-03T15:29:37.528Z,6.30
2022-11-03T15:32:06.883Z,8.38
2022-11-03T15:34:36.516Z,4.95
2022-11-03T15:37:04.539Z,3.90
2022-11-03T15:39:32.627Z,6.68
2022-11-03T15:42:00.698Z,6.97
2022-11-03T15:44:28.750Z,8.27
2022-11-03T15:46:56.873Z,7.25
2022-11-03T15:49:25.040Z,9.32
2022-11-03T15:51:54.657Z,6.40
2022-11-03T15:54:22.716Z,6.88
2022-11-03T15:56:51.026Z,9.65
2022-11-03T15:59:19.131Z,9.05
2022-11-03T16:01:47.345Z,5.03
2022-11-03T16:04:16.635Z,7.53
2022-11-03T16:09:34.518Z,7.93
2022-11-03T16:12:02.810Z,8.23
2022-11-03T16:14:31.179Z,13.65
2022-11-03T16:16:59.559Z,7.00
2022-11-03T16:19:27.590Z,7.95
2022-11-03T16:21:55.577Z,5.30
2022-11-03T16:24:29.618Z,9.48
2022-11-03T16:27:04.872Z,6.88
2022-11-03T16:29:33.043Z,8.20
2022-11-03T16:32:01.151Z,5.40
2022-11-03T16:34:29.465Z,12.68
2022-11-03T16:36:57.509Z,7.20
2022-11-03T16:39:25.619Z,12.27
2022-11-03T16:41:54.940Z,11.98
2022-11-03T16:44:24.437Z,8.57
2022-11-03T16:46:52.877Z,8.63
2022-11-03T16:49:21.033Z,8.43
2022-11-03T16:51:49.527Z,6.20
2022-11-03T16:54:17.593Z,14.13
2022-11-03T16:56:49.416Z,10.95
2022-11-03T16:59:23.440Z,9.75
2022-11-03T17:01:53.015Z,11.57
2022-11-03T17:04:21.305Z,8.52
2022-11-03T17:06:49.374Z,100.22
2022-11-03T17:09:17.436Z,46.72
2022-11-03T17:11:45.479Z,29.25
2022-11-03T17:14:14.281Z,40.95
2022-11-03T17:16:45.548Z,15.25
2022-11-03T17:19:16.140Z,9.10
2022-11-03T17:21:44.471Z,13.50
2022-11-03T17:24:13.227Z,11.23
2022-11-03T17:26:58.204Z,6.82
2022-11-03T17:29:35.910Z,10.45
2022-11-03T17:32:08.432Z,12.63
2022-11-03T17:34:39.497Z,7.18
2022-11-03T17:37:07.732Z,8.45
2022-11-03T17:39:37.978Z,9.55
2022-11-03T17:42:26.034Z,7.88
2022-11-03T17:44:56.779Z,4.60
2022-11-03T17:47:25.754Z,9.38
2022-11-03T17:49:55.235Z,7.75
2022-11-03T17:52:28.691Z,6.55
2022-11-03T17:54:59.746Z,6.07
2022-11-03T17:57:28.653Z,3.45
2022-11-03T18:00:00.771Z,7.30
2022-11-03T18:02:33.077Z,6.28
2022-11-03T18:05:26.616Z,8.50
2022-11-03T18:07:56.271Z,6.88
2022-11-03T18:10:28.358Z,5.55
2022-11-03T18:13:17.612Z,6.10
2022-11-03T18:15:49.283Z,8.00
2022-11-03T18:18:26.194Z,11.35
2022-11-03T18:20:56.533Z,11.65
2022-11-03T18:23:26.842Z,10.38
2022-11-03T18:25:55.434Z,6.60
2022-11-03T18:28:24.041Z,9.23
2022-11-03T18:30:55.969Z,6.07
2022-11-03T18:33:27.002Z,4.63
2022-11-03T18:35:57.795Z,5.20
2022-11-03T18:38:27.228Z,3.20
2022-11-03T18:40:55.834Z,4.57
2022-11-03T18:43:26.433Z,5.22
2022-11-03T18:45:54.447Z,4.70
2022-11-03T18:48:24.002Z,2.65
2022-11-03T18:50:54.951Z,2.30
2022-11-03T18:53:27.164Z,5.30
2022-11-03T18:56:00.846Z,3.92
2022-11-03T18:58:29.092Z,2.80
2022-11-03T19:00:57.483Z,2.70
2022-11-03T19:03:25.585Z,3.33
2022-11-03T19:05:54.518Z,2.53
2022-11-03T19:08:29.391Z,6.13
2022-11-03T19:11:03.530Z,2.85
2022-11-03T19:13:36.017Z,1.90
2022-11-03T19:16:14.273Z,7.90
2022-11-03T19:18:44.159Z,3.92
2022-11-03T19:21:15.282Z,6.70
2022-11-03T19:23:47.938Z,6.85
2022-11-03T19:26:23.521Z,4.93
2022-11-03T19:28:57.349Z,8.55
2022-11-03T19:31:32.189Z,5.63
2022-11-03T19:34:01.068Z,5.50
2022-11-03T19:36:31.456Z,8.35
2022-11-03T19:39:01.473Z,3.33
2022-11-03T19:41:47.423Z,5.22
2022-11-03T19:44:15.579Z,2.45
2022-11-03T19:46:43.962Z,2.53
2022-11-03T19:49:15.178Z,2.72
2022-11-03T19:51:43.740Z,2.63
2022-11-03T19:54:19.160Z,3.47
2022-11-03T19:56:47.497Z,1.98
2022-11-03T19:59:17.691Z,4.10
2022-11-03T20:01:45.854Z,4.15
2022-11-03T20:04:13.997Z,4.47
2022-11-03T20:06:42.034Z,3.80
2022-11-03T20:09:18.299Z,4.32
2022-11-03T20:11:46.766Z,2.75
2022-11-03T20:14:21.796Z,6.50
2022-11-03T20:16:49.844Z,2.85
2022-11-03T20:19:18.040Z,5.68
2022-11-03T20:21:46.255Z,3.20
2022-11-03T20:24:19.500Z,4.63
2022-11-03T20:26:47.701Z,4.30
2022-11-03T20:29:16.871Z,4.30
2022-11-03T20:31:46.185Z,3.58
2022-11-03T20:34:15.948Z,3.65
2022-11-03T20:36:44.754Z,2.22
2022-11-03T20:39:15.921Z,3.17
2022-11-03T20:41:51.462Z,3.80
2022-11-03T20:44:19.595Z,2.40
2022-11-03T20:46:47.742Z,2.80
2022-11-03T20:49:16.021Z,1.95
2022-11-03T20:51:47.391Z,5.13
2022-11-03T20:54:19.412Z,3.38
2022-11-03T20:56:49.582Z,3.45
2022-11-03T20:59:21.272Z,5.75
2022-11-03T21:01:50.173Z,1.00
2022-11-03T21:04:21.268Z,2.75
2022-11-03T21:06:50.339Z,2.70
2022-11-03T21:09:20.363Z,2.72
2022-11-03T21:11:51.903Z,2.65
2022-11-03T21:14:25.449Z,2.63
2022-11-03T21:17:11.456Z,5.88
2022-11-03T21:19:56.452Z,4.70
2022-11-03T21:25:23.407Z,1.50
2022-11-03T21:27:54.661Z,3.28
2022-11-03T21:30:24.108Z,2.08
2022-11-03T21:32:52.285Z,2.83
2022-11-03T21:35:22.936Z,3.38
2022-11-03T21:37:51.057Z,5.38
2022-11-03T21:40:19.301Z,2.85
2022-11-03T21:43:04.700Z,4.00
2022-11-03T21:45:34.738Z,3.00
2022-11-03T21:48:20.851Z,1.58
2022-11-03T21:50:49.480Z,2.20
2022-11-03T21:53:17.540Z,2.65
2022-11-03T21:55:49.433Z,4.93
2022-11-03T21:58:17.676Z,3.55
2022-11-03T22:00:47.620Z,2.40
2022-11-03T22:03:15.979Z,1.55
2022-11-03T22:05:44.206Z,2.42
2022-11-03T22:08:12.303Z,1.75
2022-11-03T22:10:40.926Z,3.15
2022-11-03T22:13:09.560Z,1.77
2022-11-03T22:15:55.813Z,2.58
2022-11-03T22:18:25.365Z,2.28
2022-11-03T22:21:11.306Z,1.15
2022-11-03T22:23:57.093Z,4.15
2022-11-03T22:26:42.648Z,4.40
2022-11-03T22:29:28.174Z,1.48
2022-11-03T22:31:56.385Z,1.55
2022-11-03T22:34:43.511Z,2.15
2022-11-03T22:37:11.552Z,0.50
2022-11-03T22:39:57.124Z,2.10
2022-11-03T22:45:33.327Z,3.75
2022-11-03T22:48:04.679Z,0.93
2022-11-03T22:50:34.147Z,1.58
2022-11-03T22:53:23.060Z,2.58
2022-11-03T22:55:50.220Z,1.00
2022-11-03T22:58:18.273Z,0.82
2022-11-03T23:00:47.535Z,2.50
2022-11-03T23:03:15.801Z,0.65
2022-11-03T23:05:45.281Z,4.40
2022-11-03T23:08:13.331Z,1.15
2022-11-03T23:10:41.390Z,2.88
2022-11-03T23:13:09.915Z,0.80
2022-11-03T23:15:43.537Z,11.55
2022-11-03T23:18:28.979Z,1.48
2022-11-03T23:21:07.476Z,1.45
2022-11-03T23:23:53.902Z,0.85
2022-11-03T23:26:26.485Z,4.00
2022-11-03T23:28:55.003Z,1.67
2022-11-03T23:31:23.150Z,3.42
2022-11-03T23:33:51.280Z,5.15
2022-11-03T23:36:20.965Z,5.25
2022-11-03T23:38:49.049Z,0.85
2022-11-03T23:41:20.295Z,6.30
2022-11-03T23:43:48.875Z,1.08
2022-11-03T23:46:37.896Z,4.30
2022-11-03T23:49:07.472Z,5.75
2022-11-03T23:51:38.605Z,9.43
2022-11-03T23:54:09.684Z,3.17
2022-11-03T23:56:58.305Z,3.13
2022-11-03T23:59:27.732Z,5.20
